Latest Coastal Weather Observations for Neptune Island

IDT60701

Issued at 11:32 am EDT Tuesday 28 March 2017 (issued every 10 minutes, with the page automatically refreshed every 10 minutes)

About coastal observations | Map of coastal stations | Coastal observations for TAS | Marine services | Other Formats
Station Details ID: 018115 Name: NEPTUNE ISLAND Lat: -35.34 Lon: 136.12 Height: 32.0 m
Data from the previous 72 hours. | See also: Recent months at Neptune Island
Date/Time
EDT
Temp
°C
Wind Pressure Rain since
9am
mm
Weather Cloud Vis
km
Sea
Height
m
Swell
Dir  Spd
kts
Gust
kts
hPa Trend Height
m
Period
s
Dir
28/11:30am 19.4 WNW 14 17 1015.5 - 0.0 - - - - - - -
28/11:00am 19.2 WNW 17 20 1015.3 - 0.0 - - - - - - -
28/10:30am 18.7 W 16 20 1015.4 - 0.0 - - - - - - -
28/10:00am 18.6 W 15 17 1015.3 - 0.0 - - - - - - -
28/09:30am 18.2 WNW 15 18 1015.1 - 0.0 - - - - - - -
28/09:00am 17.9 W 15 17 1015.0 - 0.0 - - - - - - -
28/08:30am 18.0 W 15 17 1014.8 - 0.0 - - - - - - -
28/08:00am 17.7 W 11 14 1014.7 - 0.0 - - - - - - -
28/07:30am 17.9 W 15 20 1014.5 - 0.0 - - - - - - -
28/07:00am 17.6 WNW 15 18 1014.4 - 0.0 - - - - - - -
28/06:30am 17.4 W 14 18 1014.4 - 0.0 - - - - - - -
28/06:00am 17.6 W 13 17 1014.4 - 0.0 - - - - - - -
28/05:30am 17.6 W 14 16 1014.3 - 0.0 - - - - - - -
28/05:00am 17.6 W 13 16 1014.4 - 0.0 - - - - - - -
28/04:30am 17.5 W 14 17 1014.6 - 0.0 - - - - - - -
28/04:00am 17.7 W 14 16 1015.0 - 0.0 - - - - - - -
28/03:30am 17.6 W 12 16 1015.0 - 0.0 - - - - - - -
28/03:00am 17.6 W 15 17 1015.2 - 0.0 - - - - - - -
28/02:30am 17.6 W 15 17 1015.5 - 0.0 - - - - - - -
28/02:00am 17.7 W 15 19 1015.7 - 0.0 - - - - - - -
28/01:30am 17.6 W 16 18 1015.8 - 0.0 - - - - - - -
28/01:00am 17.7 W 14 20 1015.9 - 0.0 - - - - - - -
28/12:30am 17.7 W 17 19 1015.8 - 0.0 - - - - - - -
28/12:00am 17.8 W 16 19 1016.0 - 0.0 - - - - - - -
 
Date/Time
EDT
Temp
°C
Wind Pressure Rain since
9am
mm
Weather Cloud Vis
km
Sea
Height
m
Swell
Dir  Spd
kts
Gust
kts
hPa Trend Height
m
Period
s
Dir
27/11:30pm 18.0 W 15 17 1016.0 - 0.0 - - - - - - -
27/11:00pm 18.0 W 14 17 1015.9 - 0.0 - - - - - - -
27/10:30pm 18.0 W 14 17 1015.9 - 0.0 - - - - - - -
27/10:00pm 18.1 W 16 19 1015.8 - 0.0 - - - - - - -
27/09:30pm 18.1 WSW 16 18 1015.3 - 0.0 - - - - - - -
27/09:00pm 18.3 WSW 14 16 1015.1 - 0.0 - - - - - - -
27/08:30pm 18.3 W 14 17 1014.9 - 0.0 - - - - - - -
27/08:00pm 18.3 WSW 16 19 1014.7 - 0.0 - - - - - - -
27/07:30pm 18.7 WSW 17 20 1014.5 - 0.0 - - - - - - -
27/07:00pm 18.9 W 17 21 1014.2 - 0.0 - - - - - - -
27/06:30pm 19.6 W 17 20 1014.3 - 0.0 - - - - - - -
27/06:00pm 19.7 WSW 19 23 1014.0 - 0.0 - - - - - - -
27/05:30pm 19.9 WSW 21 24 1014.1 - 0.0 - - - - - - -
27/05:00pm 19.8 WSW 21 25 1014.2 - 0.0 - - - - - - -
27/04:30pm 20.0 WSW 23 27 1014.1 - 0.0 - - - - - - -
27/04:00pm 20.1 W 22 25 1014.0 - 0.0 - - - - - - -
27/03:30pm 20.3 W 24 28 1014.2 - 0.0 - - - - - - -
27/03:00pm 20.8 W 23 27 1014.3 - 0.0 - - - - - - -
27/02:30pm 20.8 W 21 25 1014.2 - 0.0 - - - - - - -
27/02:00pm 20.4 W 23 28 1014.2 - 0.0 - - - - - - -
27/01:30pm 20.3 W 23 28 1014.1 - 0.0 - - - - - - -
27/01:00pm 20.0 WSW 24 29 1014.2 - 0.0 - - - - - - -
27/12:30pm 19.8 W 27 32 1014.0 - 0.0 - - - - - - -
27/12:00pm 19.8 WSW 26 29 1013.7 - 0.0 - - - - - - -
27/11:30am 19.7 W 25 30 1013.7 - 0.0 - - - - - - -
27/11:00am 19.4 W 27 32 1013.2 - 0.0 - - - - - - -
27/10:30am 19.2 W 27 34 1012.6 - 0.0 - - - - - - -
27/10:00am 18.8 W 25 33 1012.1 - 0.0 - - - - - - -
27/09:30am 19.0 W 29 36 1011.7 - 0.0 - - - - - - -
27/09:00am 18.6 W 27 32 1011.4 - 0.0 - - - - - - -
27/08:30am 18.6 W 28 33 1010.8 - 0.0 - - - - - - -
27/08:00am 18.3 W 25 31 1010.5 - 0.0 - - - - - - -
27/07:30am 18.4 WSW 27 31 1009.6 - 0.0 - - - - - - -
27/07:00am 18.8 W 27 32 1009.3 - 0.0 - - - - - - -
27/06:30am 18.8 WSW 26 30 1008.0 - 0.0 - - - - - - -
27/06:00am 19.0 WSW 26 32 1007.6 - 0.0 - - - - - - -
27/05:30am 19.0 WSW 26 31 1006.7 - 0.0 - - - - - - -
27/05:00am 19.3 WSW 28 33 1006.8 - 0.0 - - - - - - -
27/04:30am 19.5 WSW 28 34 1006.1 - 0.0 - - - - - - -
27/04:00am 19.6 WSW 24 28 1005.5 - 0.0 - - - - - - -
27/03:30am 19.8 WSW 25 29 1005.6 - 0.0 - - - - - - -
27/03:00am 20.0 WSW 27 31 1005.6 - 0.0 - - - - - - -
27/02:30am 20.1 WSW 28 32 1005.5 - 0.0 - - - - - - -
27/02:00am 20.2 WSW 27 31 1005.0 - 0.0 - - - - - - -
27/01:30am 20.5 WSW 30 35 1004.3 - 0.0 - - - - - - -
27/01:03am 20.9 WSW 29 39 1003.3 - 0.0 - - - - - - -
27/01:00am 20.9 WSW 27 35 1003.2 - 0.0 - - - - - - -
27/12:30am 21.4 W 25 29 1003.6 - 0.0 - - - - - - -
27/12:00am 22.3 W 24 27 1003.5 - 0.0 - - - - - - -
 
Date/Time
EDT
Temp
°C
Wind Pressure Rain since
9am
mm
Weather Cloud Vis
km
Sea
Height
m
Swell
Dir  Spd
kts
Gust
kts
hPa Trend Height
m
Period
s
Dir
26/11:55pm 22.6 W 23 27 1003.6 - 0.0 - - - - - - -
26/11:30pm 22.3 NW 20 23 1003.8 - 0.0 - - - - - - -
26/11:22pm 22.3 NNW 17 22 1003.8 - 0.0 - - - - - - -
26/11:00pm 23.0 N 16 20 1002.7 - 0.0 - - - - - - -
26/10:30pm 21.9 NNE 19 21 1002.8 - 0.0 - - - - - - -
26/10:00pm 21.9 NNE 15 17 1002.9 - 0.0 - - - - - - -
26/09:30pm 21.6 NNE 17 21 1002.8 - 0.0 - - - - - - -
26/09:00pm 21.7 NE 15 19 1002.7 - 0.0 - - - - - - -
26/08:30pm 20.7 NNE 14 16 1003.0 - 0.0 - - - - - - -
26/08:00pm 21.0 NE 16 17 1003.0 - 0.0 - - - - - - -
26/07:30pm 20.8 ENE 15 16 1003.4 - 0.0 - - - - - - -
26/07:00pm 20.6 ENE 14 15 1003.6 - 0.0 - - - - - - -
26/06:30pm 21.1 ENE 13 15 1003.9 - 0.0 - - - - - - -
26/06:00pm 21.9 NE 14 16 1004.3 - 0.0 - - - - - - -
26/05:30pm 21.5 ENE 16 18 1004.6 - 0.0 - - - - - - -
26/05:00pm 22.4 ENE 14 17 1004.8 - 0.0 - - - - - - -
26/04:30pm 22.2 ENE 14 16 1005.1 - 0.0 - - - - - - -
26/04:00pm 22.0 ENE 13 15 1006.1 - 0.0 - - - - - - -
26/03:30pm 21.8 ENE 17 19 1006.2 - 0.0 - - - - - - -
26/03:00pm 21.5 ENE 16 19 1006.9 - 0.0 - - - - - - -
26/02:30pm 21.6 ENE 15 18 1008.3 - 0.0 - - - - - - -
26/02:00pm 21.8 ENE 15 18 1008.6 - 0.0 - - - - - - -
26/01:30pm 20.8 ENE 14 16 1009.2 - 0.0 - - - - - - -
26/01:00pm 20.4 ENE 13 15 1010.1 - 0.0 - - - - - - -
26/12:30pm 20.4 ENE 12 14 1010.9 - 0.0 - - - - - - -
26/12:00pm 19.8 ENE 13 15 1011.1 - 0.0 - - - - - - -
26/11:30am 19.7 ENE 14 17 1011.1 - 0.0 - - - - - - -
26/11:00am 19.5 ENE 13 16 1011.6 - 0.0 - - - - - - -
26/10:30am 19.4 E 14 17 1011.6 - 0.0 - - - - - - -
26/10:00am 19.4 E 14 16 1011.5 - 0.0 - - - - - - -
26/09:30am 19.4 E 13 15 1011.9 - 0.0 - - - - - - -
26/09:00am 19.4 E 13 16 1011.4 - 0.0 - - - - - - -
26/08:30am 19.2 ESE 12 15 1011.6 - 0.0 - - - - - - -
26/08:00am 19.1 ESE 11 13 1011.5 - 0.0 - - - - - - -
26/07:30am 19.1 ESE 10 13 1011.3 - 0.0 - - - - - - -
26/07:00am 19.1 E 11 14 1011.0 - 0.0 - - - - - - -
26/06:30am 19.0 E 12 14 1010.7 - 0.0 - - - - - - -
26/06:00am 19.0 ENE 12 13 1010.9 - 0.0 - - - - - - -
26/05:30am 19.0 ENE 13 15 1010.2 - 0.0 - - - - - - -
26/05:00am 18.9 ENE 13 16 1010.4 - 0.0 - - - - - - -
26/04:30am 18.9 ENE 13 14 1010.8 - 0.0 - - - - - - -
26/04:00am 19.0 ENE 12 15 1011.2 - 0.0 - - - - - - -
26/03:30am 19.0 ENE 15 18 1011.3 - 0.0 - - - - - - -
26/03:00am 19.0 ENE 16 18 1011.8 - 0.0 - - - - - - -
26/02:30am 19.0 ENE 15 17 1012.4 - 0.0 - - - - - - -
26/02:00am 19.2 ENE 14 16 1013.0 - 0.0 - - - - - - -
26/01:30am 19.3 ENE 13 15 1013.5 - 0.0 - - - - - - -
26/01:00am 19.3 ENE 14 16 1013.5 - 0.0 - - - - - - -
26/12:30am 19.5 ENE 14 16 1013.8 - 0.0 - - - - - - -
26/12:00am 19.5 ENE 15 18 1013.4 - 0.0 - - - - - - -
 
Date/Time
EDT
Temp
°C
Wind Pressure Rain since
9am
mm
Weather Cloud Vis
km
Sea
Height
m
Swell
Dir  Spd
kts
Gust
kts
hPa Trend Height
m
Period
s
Dir
25/11:30pm 19.6 ENE 13 16 1013.8 - 0.0 - - - - - - -
25/11:00pm 19.7 E 12 14 1013.9 - 0.0 - - - - - - -
25/10:30pm 19.7 E 11 12 1014.0 - 0.0 - - - - - - -
25/10:00pm 19.5 ESE 9 11 1013.7 - 0.0 - - - - - - -
25/09:30pm 19.3 SSE 11 14 1013.7 - 0.0 - - - - - - -
25/09:00pm 19.2 SSE 15 17 1013.4 - 0.0 - - - - - - -
25/08:30pm 19.2 SSE 12 15 1013.2 - 0.0 - - - - - - -
25/08:00pm 19.3 SSE 13 15 1012.7 - 0.0 - - - - - - -
25/07:30pm 19.3 SSE 12 15 1012.5 - 0.0 - - - - - - -
25/07:00pm 19.7 SSE 12 14 1012.8 - 0.0 - - - - - - -
25/06:30pm 20.1 S 9 11 1013.0 - 0.0 - - - - - - -
25/06:00pm 20.5 SSE 10 13 1012.7 - 0.0 - - - - - - -
25/05:30pm 21.0 SSE 10 14 1012.7 - 0.0 - - - - - - -
25/05:00pm 21.2 S 12 13 1013.0 - 0.0 - - - - - - -
25/04:30pm 21.3 SSE 11 13 1012.9 - 0.0 - - - - - - -
25/04:00pm 21.6 SSE 8 11 1012.7 - 0.0 - - - - - - -
25/03:30pm 20.8 S 7 8 1013.3 - 0.0 - - - - - - -
25/03:00pm 20.5 S 6 6 1013.5 - 0.0 - - - - - - -
25/02:30pm 21.2 SSE 7 9 1013.7 - 0.0 - - - - - - -
25/02:00pm 21.2 SSE 7 8 1014.2 - 0.0 - - - - - - -
25/01:30pm 21.5 SSE 7 8 1014.5 - 0.0 - - - - - - -
25/01:00pm 21.9 SSE 7 9 1014.4 - 0.0 - - - - - - -
25/12:30pm 21.0 S 7 8 1015.0 - 0.0 - - - - - - -

Other Formats:

Comma delimited format used in spreadsheet applications
http://www.bom.gov.au/fwo/IDT60701/IDT60701.94804.axf

JavaScript Object Notation format (JSON) in row-major order
http://www.bom.gov.au/fwo/IDT60701/IDT60701.94804.json